Terminal Aerodrome Forecast
Issued by NWS

Home | Current Version | Previous Version | Text Only | Print | Product List | Glossary Off
Versions: 1 2 3 4 5 6 7 8 9 10 11 12 13 14 15 16 17 18 19

000
FTUS41 KCLE 191100
TAFFDY
TAF
KFDY 191126Z 1912/2012 19011KT P6SM SCT040 BKN100
     FM191500 19014G22KT 3SM -SN SCT015 OVC035
     FM192100 23015G25KT 4SM -SN OVC015
     FM200000 25014G22KT P6SM OVC025=

USA.gov is the U.S. government's official web portal to all federal, state and local government web resources and services.